sensor_id;sensor_type;location;lat;lon;timestamp;P1;durP1;ratioP1;P2;durP2;ratioP2
75930;SDS011;64609;47.052;15.462;2023-02-15T00:00:54;37.90;;;21.98;;
75930;SDS011;64609;47.052;15.462;2023-02-15T00:03:29;33.95;;;21.85;;
75930;SDS011;64609;47.052;15.462;2023-02-15T00:05:56;37.67;;;22.13;;
75930;SDS011;64609;47.052;15.462;2023-02-15T00:08:22;33.97;;;21.25;;
75930;SDS011;64609;47.052;15.462;2023-02-15T00:10:48;35.60;;;20.88;;
75930;SDS011;64609;47.052;15.462;2023-02-15T00:13:13;35.75;;;21.80;;
75930;SDS011;64609;47.052;15.462;2023-02-15T00:15:39;37.15;;;22.20;;
75930;SDS011;64609;47.052;15.462;2023-02-15T00:18:05;35.25;;;20.45;;
75930;SDS011;64609;47.052;15.462;2023-02-15T00:20:30;37.33;;;23.38;;
75930;SDS011;64609;47.052;15.462;2023-02-15T00:22:56;39.97;;;21.67;;
75930;SDS011;64609;47.052;15.462;2023-02-15T00:25:22;36.70;;;21.33;;
75930;SDS011;64609;47.052;15.462;2023-02-15T00:27:47;34.38;;;22.00;;
75930;SDS011;64609;47.052;15.462;2023-02-15T00:30:13;33.65;;;21.20;;
75930;SDS011;64609;47.052;15.462;2023-02-15T00:32:40;38.70;;;22.30;;
75930;SDS011;64609;47.052;15.462;2023-02-15T00:35:05;45.45;;;21.55;;
75930;SDS011;64609;47.052;15.462;2023-02-15T00:37:32;36.67;;;22.30;;
75930;SDS011;64609;47.052;15.462;2023-02-15T00:39:57;32.88;;;20.58;;
75930;SDS011;64609;47.052;15.462;2023-02-15T00:42:23;38.00;;;22.27;;
75930;SDS011;64609;47.052;15.462;2023-02-15T00:44:49;38.20;;;23.35;;
75930;SDS011;64609;47.052;15.462;2023-02-15T00:47:14;34.22;;;21.95;;
75930;SDS011;64609;47.052;15.462;2023-02-15T00:49:40;36.60;;;21.67;;
75930;SDS011;64609;47.052;15.462;2023-02-15T00:52:06;42.92;;;22.52;;
75930;SDS011;64609;47.052;15.462;2023-02-15T00:54:31;37.40;;;21.10;;
75930;SDS011;64609;47.052;15.462;2023-02-15T00:56:57;36.78;;;23.00;;
75930;SDS011;64609;47.052;15.462;2023-02-15T00:59:22;38.67;;;22.67;;
75930;SDS011;64609;47.052;15.462;2023-02-15T01:01:48;37.78;;;23.05;;
75930;SDS011;64609;47.052;15.462;2023-02-15T01:04:13;35.78;;;21.83;;
75930;SDS011;64609;47.052;15.462;2023-02-15T01:06:39;37.28;;;22.27;;
75930;SDS011;64609;47.052;15.462;2023-02-15T01:09:05;35.92;;;22.33;;
75930;SDS011;64609;47.052;15.462;2023-02-15T01:11:30;38.40;;;22.65;;
75930;SDS011;64609;47.052;15.462;2023-02-15T01:13:56;40.83;;;22.50;;
75930;SDS011;64609;47.052;15.462;2023-02-15T01:16:23;38.20;;;23.45;;
75930;SDS011;64609;47.052;15.462;2023-02-15T01:18:50;36.63;;;21.80;;
75930;SDS011;64609;47.052;15.462;2023-02-15T01:21:17;37.47;;;22.25;;
75930;SDS011;64609;47.052;15.462;2023-02-15T01:23:44;40.33;;;22.33;;
75930;SDS011;64609;47.052;15.462;2023-02-15T01:26:10;36.67;;;21.92;;
75930;SDS011;64609;47.052;15.462;2023-02-15T01:28:36;40.28;;;22.42;;
75930;SDS011;64609;47.052;15.462;2023-02-15T01:31:06;37.85;;;21.50;;
75930;SDS011;64609;47.052;15.462;2023-02-15T01:33:36;37.17;;;22.77;;
75930;SDS011;64609;47.052;15.462;2023-02-15T01:36:03;39.20;;;21.70;;
75930;SDS011;64609;47.052;15.462;2023-02-15T01:38:29;35.55;;;22.83;;
75930;SDS011;64609;47.052;15.462;2023-02-15T01:40:55;39.95;;;22.48;;
75930;SDS011;64609;47.052;15.462;2023-02-15T01:43:40;33.92;;;21.80;;
75930;SDS011;64609;47.052;15.462;2023-02-15T01:46:07;36.60;;;21.80;;
75930;SDS011;64609;47.052;15.462;2023-02-15T01:48:35;40.65;;;23.83;;
75930;SDS011;64609;47.052;15.462;2023-02-15T01:51:13;34.17;;;21.50;;
75930;SDS011;64609;47.052;15.462;2023-02-15T01:53:46;35.58;;;22.25;;
75930;SDS011;64609;47.052;15.462;2023-02-15T01:56:33;35.33;;;22.27;;
75930;SDS011;64609;47.052;15.462;2023-02-15T01:59:03;36.30;;;23.38;;
75930;SDS011;64609;47.052;15.462;2023-02-15T02:01:33;36.40;;;22.95;;
75930;SDS011;64609;47.052;15.462;2023-02-15T02:06:37;36.70;;;23.23;;
75930;SDS011;64609;47.052;15.462;2023-02-15T02:09:04;41.90;;;24.15;;
75930;SDS011;64609;47.052;15.462;2023-02-15T02:11:30;44.13;;;26.05;;
75930;SDS011;64609;47.052;15.462;2023-02-15T02:13:57;46.33;;;27.15;;
75930;SDS011;64609;47.052;15.462;2023-02-15T02:28:38;46.03;;;27.50;;
75930;SDS011;64609;47.052;15.462;2023-02-15T02:31:11;46.42;;;27.05;;
75930;SDS011;64609;47.052;15.462;2023-02-15T02:37:08;48.25;;;28.02;;
75930;SDS011;64609;47.052;15.462;2023-02-15T02:42:09;48.72;;;29.23;;
75930;SDS011;64609;47.052;15.462;2023-02-15T02:44:52;51.88;;;29.35;;
75930;SDS011;64609;47.052;15.462;2023-02-15T02:50:07;46.63;;;29.15;;
75930;SDS011;64609;47.052;15.462;2023-02-15T02:52:47;50.25;;;29.25;;
75930;SDS011;64609;47.052;15.462;2023-02-15T02:55:28;48.45;;;29.83;;
75930;SDS011;64609;47.052;15.462;2023-02-15T03:03:34;52.60;;;28.80;;
75930;SDS011;64609;47.052;15.462;2023-02-15T03:06:06;49.45;;;28.23;;
75930;SDS011;64609;47.052;15.462;2023-02-15T03:08:38;46.60;;;27.95;;
75930;SDS011;64609;47.052;15.462;2023-02-15T03:11:07;47.50;;;28.83;;
75930;SDS011;64609;47.052;15.462;2023-02-15T03:13:33;45.33;;;28.52;;
75930;SDS011;64609;47.052;15.462;2023-02-15T03:16:00;49.45;;;29.42;;
75930;SDS011;64609;47.052;15.462;2023-02-15T03:18:46;49.58;;;28.42;;
75930;SDS011;64609;47.052;15.462;2023-02-15T03:21:23;51.53;;;30.00;;
75930;SDS011;64609;47.052;15.462;2023-02-15T03:24:29;49.60;;;28.63;;
75930;SDS011;64609;47.052;15.462;2023-02-15T03:27:02;51.10;;;29.05;;
75930;SDS011;64609;47.052;15.462;2023-02-15T03:29:30;45.80;;;28.33;;
75930;SDS011;64609;47.052;15.462;2023-02-15T03:31:59;49.90;;;28.27;;
75930;SDS011;64609;47.052;15.462;2023-02-15T03:34:26;46.30;;;27.52;;
75930;SDS011;64609;47.052;15.462;2023-02-15T03:40:07;48.38;;;27.00;;
75930;SDS011;64609;47.052;15.462;2023-02-15T03:43:00;48.13;;;28.27;;
75930;SDS011;64609;47.052;15.462;2023-02-15T03:45:45;47.95;;;27.83;;
75930;SDS011;64609;47.052;15.462;2023-02-15T03:48:27;44.53;;;28.50;;
75930;SDS011;64609;47.052;15.462;2023-02-15T03:51:00;49.45;;;28.60;;
75930;SDS011;64609;47.052;15.462;2023-02-15T03:53:48;48.03;;;27.20;;
75930;SDS011;64609;47.052;15.462;2023-02-15T03:56:17;47.42;;;27.35;;
75930;SDS011;64609;47.052;15.462;2023-02-15T03:58:42;49.65;;;28.77;;
75930;SDS011;64609;47.052;15.462;2023-02-15T04:04:25;45.20;;;27.75;;
75930;SDS011;64609;47.052;15.462;2023-02-15T04:06:55;48.33;;;28.10;;
75930;SDS011;64609;47.052;15.462;2023-02-15T04:09:21;46.38;;;27.27;;
75930;SDS011;64609;47.052;15.462;2023-02-15T04:12:10;45.85;;;27.45;;
75930;SDS011;64609;47.052;15.462;2023-02-15T04:14:35;51.17;;;29.40;;
75930;SDS011;64609;47.052;15.462;2023-02-15T04:17:20;48.80;;;28.25;;
75930;SDS011;64609;47.052;15.462;2023-02-15T04:19:45;50.38;;;28.73;;
75930;SDS011;64609;47.052;15.462;2023-02-15T04:22:29;49.30;;;28.92;;
75930;SDS011;64609;47.052;15.462;2023-02-15T04:25:14;52.65;;;28.58;;
75930;SDS011;64609;47.052;15.462;2023-02-15T04:27:49;46.38;;;27.00;;
75930;SDS011;64609;47.052;15.462;2023-02-15T04:30:17;47.35;;;27.10;;
75930;SDS011;64609;47.052;15.462;2023-02-15T04:32:44;45.28;;;26.60;;
75930;SDS011;64609;47.052;15.462;2023-02-15T04:35:10;48.33;;;28.52;;
75930;SDS011;64609;47.052;15.462;2023-02-15T04:37:36;45.63;;;28.70;;
75930;SDS011;64609;47.052;15.462;2023-02-15T04:40:03;55.80;;;28.15;;
75930;SDS011;64609;47.052;15.462;2023-02-15T04:42:29;49.70;;;29.15;;
75930;SDS011;64609;47.052;15.462;2023-02-15T04:44:55;44.42;;;27.45;;
75930;SDS011;64609;47.052;15.462;2023-02-15T04:47:21;46.25;;;27.45;;
75930;SDS011;64609;47.052;15.462;2023-02-15T04:49:46;48.53;;;29.67;;
75930;SDS011;64609;47.052;15.462;2023-02-15T04:52:12;49.55;;;28.50;;
75930;SDS011;64609;47.052;15.462;2023-02-15T04:54:38;48.88;;;28.65;;
75930;SDS011;64609;47.052;15.462;2023-02-15T04:57:04;49.78;;;29.00;;
75930;SDS011;64609;47.052;15.462;2023-02-15T04:59:30;52.35;;;30.58;;
75930;SDS011;64609;47.052;15.462;2023-02-15T05:01:56;54.75;;;29.42;;
75930;SDS011;64609;47.052;15.462;2023-02-15T05:04:22;61.38;;;30.05;;
75930;SDS011;64609;47.052;15.462;2023-02-15T05:06:48;59.58;;;31.80;;
75930;SDS011;64609;47.052;15.462;2023-02-15T05:09:13;56.72;;;31.70;;
75930;SDS011;64609;47.052;15.462;2023-02-15T05:11:39;55.63;;;32.78;;
75930;SDS011;64609;47.052;15.462;2023-02-15T05:14:05;51.92;;;31.35;;
75930;SDS011;64609;47.052;15.462;2023-02-15T05:16:31;63.80;;;34.00;;
75930;SDS011;64609;47.052;15.462;2023-02-15T05:18:57;55.20;;;33.85;;
75930;SDS011;64609;47.052;15.462;2023-02-15T05:21:22;58.95;;;31.27;;
75930;SDS011;64609;47.052;15.462;2023-02-15T05:23:48;51.85;;;30.30;;
75930;SDS011;64609;47.052;15.462;2023-02-15T05:26:17;52.30;;;30.40;;
75930;SDS011;64609;47.052;15.462;2023-02-15T05:29:03;49.70;;;29.25;;
75930;SDS011;64609;47.052;15.462;2023-02-15T05:31:30;48.08;;;28.55;;
75930;SDS011;64609;47.052;15.462;2023-02-15T05:33:56;58.28;;;28.88;;
75930;SDS011;64609;47.052;15.462;2023-02-15T05:36:22;49.63;;;28.60;;
75930;SDS011;64609;47.052;15.462;2023-02-15T05:38:47;48.20;;;29.52;;
75930;SDS011;64609;47.052;15.462;2023-02-15T05:41:13;46.33;;;27.42;;
75930;SDS011;64609;47.052;15.462;2023-02-15T05:43:39;51.92;;;29.15;;
75930;SDS011;64609;47.052;15.462;2023-02-15T05:46:05;45.20;;;27.88;;
75930;SDS011;64609;47.052;15.462;2023-02-15T05:48:31;58.97;;;30.02;;
75930;SDS011;64609;47.052;15.462;2023-02-15T05:50:58;50.05;;;28.77;;
75930;SDS011;64609;47.052;15.462;2023-02-15T05:53:26;51.60;;;27.95;;
75930;SDS011;64609;47.052;15.462;2023-02-15T05:55:53;53.33;;;28.88;;
75930;SDS011;64609;47.052;15.462;2023-02-15T05:58:23;54.15;;;27.65;;
75930;SDS011;64609;47.052;15.462;2023-02-15T06:00:50;51.17;;;27.58;;
75930;SDS011;64609;47.052;15.462;2023-02-15T06:03:16;49.13;;;27.08;;
75930;SDS011;64609;47.052;15.462;2023-02-15T06:05:42;50.85;;;28.92;;
75930;SDS011;64609;47.052;15.462;2023-02-15T06:08:07;56.88;;;30.15;;
75930;SDS011;64609;47.052;15.462;2023-02-15T06:10:33;54.92;;;30.55;;
75930;SDS011;64609;47.052;15.462;2023-02-15T06:12:58;49.08;;;29.15;;
75930;SDS011;64609;47.052;15.462;2023-02-15T06:15:24;57.97;;;30.83;;
75930;SDS011;64609;47.052;15.462;2023-02-15T06:17:50;57.42;;;32.90;;
75930;SDS011;64609;47.052;15.462;2023-02-15T06:20:15;60.17;;;31.65;;
75930;SDS011;64609;47.052;15.462;2023-02-15T06:22:41;55.95;;;30.13;;
75930;SDS011;64609;47.052;15.462;2023-02-15T06:25:06;55.28;;;30.52;;
75930;SDS011;64609;47.052;15.462;2023-02-15T06:27:35;49.53;;;29.50;;
75930;SDS011;64609;47.052;15.462;2023-02-15T06:30:01;51.25;;;28.42;;
75930;SDS011;64609;47.052;15.462;2023-02-15T06:32:26;54.80;;;28.25;;
75930;SDS011;64609;47.052;15.462;2023-02-15T06:34:52;49.50;;;26.38;;
75930;SDS011;64609;47.052;15.462;2023-02-15T06:37:18;50.47;;;27.23;;
75930;SDS011;64609;47.052;15.462;2023-02-15T06:39:43;51.88;;;27.25;;
75930;SDS011;64609;47.052;15.462;2023-02-15T06:42:09;46.28;;;24.65;;
75930;SDS011;64609;47.052;15.462;2023-02-15T06:44:35;43.20;;;25.90;;
75930;SDS011;64609;47.052;15.462;2023-02-15T06:47:00;47.60;;;26.77;;
75930;SDS011;64609;47.052;15.462;2023-02-15T06:49:26;42.38;;;25.92;;
75930;SDS011;64609;47.052;15.462;2023-02-15T06:51:51;52.90;;;26.02;;
75930;SDS011;64609;47.052;15.462;2023-02-15T06:54:17;56.47;;;26.25;;
75930;SDS011;64609;47.052;15.462;2023-02-15T06:56:43;53.88;;;27.98;;
75930;SDS011;64609;47.052;15.462;2023-02-15T06:59:08;59.80;;;28.70;;
75930;SDS011;64609;47.052;15.462;2023-02-15T07:01:34;50.80;;;27.92;;
75930;SDS011;64609;47.052;15.462;2023-02-15T07:04:01;49.95;;;27.70;;
75930;SDS011;64609;47.052;15.462;2023-02-15T07:06:30;48.17;;;27.23;;
75930;SDS011;64609;47.052;15.462;2023-02-15T07:08:58;51.15;;;28.50;;
75930;SDS011;64609;47.052;15.462;2023-02-15T07:11:23;54.05;;;28.92;;
75930;SDS011;64609;47.052;15.462;2023-02-15T07:14:07;55.67;;;31.00;;
75930;SDS011;64609;47.052;15.462;2023-02-15T07:16:33;53.95;;;31.17;;
75930;SDS011;64609;47.052;15.462;2023-02-15T07:18:59;47.38;;;28.83;;
75930;SDS011;64609;47.052;15.462;2023-02-15T07:21:24;46.58;;;28.15;;
75930;SDS011;64609;47.052;15.462;2023-02-15T07:23:50;51.80;;;30.63;;
75930;SDS011;64609;47.052;15.462;2023-02-15T07:26:16;53.70;;;32.22;;
75930;SDS011;64609;47.052;15.462;2023-02-15T07:28:41;53.65;;;29.10;;
75930;SDS011;64609;47.052;15.462;2023-02-15T07:31:07;50.10;;;30.08;;
75930;SDS011;64609;47.052;15.462;2023-02-15T07:33:33;55.17;;;30.23;;
75930;SDS011;64609;47.052;15.462;2023-02-15T07:36:00;52.70;;;31.23;;
75930;SDS011;64609;47.052;15.462;2023-02-15T07:38:33;56.33;;;31.92;;
75930;SDS011;64609;47.052;15.462;2023-02-15T07:41:05;55.53;;;30.25;;
75930;SDS011;64609;47.052;15.462;2023-02-15T07:43:33;52.60;;;30.73;;
75930;SDS011;64609;47.052;15.462;2023-02-15T07:46:04;52.97;;;30.33;;
75930;SDS011;64609;47.052;15.462;2023-02-15T07:48:32;51.85;;;29.65;;
75930;SDS011;64609;47.052;15.462;2023-02-15T07:51:02;61.65;;;33.70;;
75930;SDS011;64609;47.052;15.462;2023-02-15T07:53:29;61.35;;;32.92;;
75930;SDS011;64609;47.052;15.462;2023-02-15T07:56:02;51.85;;;30.42;;
75930;SDS011;64609;47.052;15.462;2023-02-15T07:58:29;52.15;;;31.80;;
75930;SDS011;64609;47.052;15.462;2023-02-15T08:01:14;52.85;;;30.80;;
75930;SDS011;64609;47.052;15.462;2023-02-15T08:03:40;55.65;;;31.40;;
75930;SDS011;64609;47.052;15.462;2023-02-15T08:06:06;53.17;;;31.48;;
75930;SDS011;64609;47.052;15.462;2023-02-15T08:08:35;60.75;;;33.42;;
75930;SDS011;64609;47.052;15.462;2023-02-15T08:11:01;57.25;;;32.10;;
75930;SDS011;64609;47.052;15.462;2023-02-15T08:13:47;54.03;;;30.27;;
75930;SDS011;64609;47.052;15.462;2023-02-15T08:18:50;52.17;;;30.10;;
75930;SDS011;64609;47.052;15.462;2023-02-15T08:21:17;60.78;;;30.88;;
75930;SDS011;64609;47.052;15.462;2023-02-15T08:23:43;50.38;;;30.13;;
75930;SDS011;64609;47.052;15.462;2023-02-15T08:26:08;52.30;;;31.83;;
75930;SDS011;64609;47.052;15.462;2023-02-15T08:28:34;54.22;;;29.80;;
75930;SDS011;64609;47.052;15.462;2023-02-15T08:31:07;53.13;;;31.58;;
75930;SDS011;64609;47.052;15.462;2023-02-15T08:33:34;51.08;;;31.05;;
75930;SDS011;64609;47.052;15.462;2023-02-15T08:36:07;49.70;;;30.25;;
75930;SDS011;64609;47.052;15.462;2023-02-15T08:38:35;56.33;;;32.35;;
75930;SDS011;64609;47.052;15.462;2023-02-15T08:41:11;57.78;;;32.67;;
75930;SDS011;64609;47.052;15.462;2023-02-15T08:43:39;52.10;;;32.63;;
75930;SDS011;64609;47.052;15.462;2023-02-15T08:46:05;58.40;;;32.95;;
75930;SDS011;64609;47.052;15.462;2023-02-15T08:48:31;55.03;;;32.88;;
75930;SDS011;64609;47.052;15.462;2023-02-15T08:50:57;52.30;;;31.70;;
75930;SDS011;64609;47.052;15.462;2023-02-15T08:53:22;60.85;;;34.65;;
75930;SDS011;64609;47.052;15.462;2023-02-15T08:55:55;59.00;;;33.25;;
75930;SDS011;64609;47.052;15.462;2023-02-15T08:58:22;60.10;;;32.45;;
75930;SDS011;64609;47.052;15.462;2023-02-15T09:00:48;64.53;;;34.03;;
75930;SDS011;64609;47.052;15.462;2023-02-15T09:03:13;58.13;;;35.13;;
75930;SDS011;64609;47.052;15.462;2023-02-15T09:05:39;51.30;;;32.67;;
75930;SDS011;64609;47.052;15.462;2023-02-15T09:08:04;56.53;;;34.10;;
75930;SDS011;64609;47.052;15.462;2023-02-15T09:10:30;50.15;;;31.48;;
75930;SDS011;64609;47.052;15.462;2023-02-15T09:12:56;57.50;;;33.08;;
75930;SDS011;64609;47.052;15.462;2023-02-15T09:15:21;58.33;;;33.47;;
75930;SDS011;64609;47.052;15.462;2023-02-15T09:17:47;55.30;;;32.72;;
75930;SDS011;64609;47.052;15.462;2023-02-15T09:20:12;59.65;;;33.63;;
75930;SDS011;64609;47.052;15.462;2023-02-15T09:22:38;61.05;;;34.55;;
75930;SDS011;64609;47.052;15.462;2023-02-15T09:25:04;62.80;;;33.30;;
75930;SDS011;64609;47.052;15.462;2023-02-15T09:27:29;59.33;;;32.42;;
75930;SDS011;64609;47.052;15.462;2023-02-15T09:29:55;60.47;;;33.83;;
75930;SDS011;64609;47.052;15.462;2023-02-15T09:32:21;53.90;;;33.13;;
75930;SDS011;64609;47.052;15.462;2023-02-15T09:34:47;55.75;;;33.35;;
75930;SDS011;64609;47.052;15.462;2023-02-15T09:37:13;57.42;;;33.78;;
75930;SDS011;64609;47.052;15.462;2023-02-15T09:39:39;53.58;;;32.03;;
75930;SDS011;64609;47.052;15.462;2023-02-15T10:13:29;55.08;;;32.75;;
75930;SDS011;64609;47.052;15.462;2023-02-15T10:16:11;59.83;;;35.05;;
75930;SDS011;64609;47.052;15.462;2023-02-15T10:21:47;61.10;;;35.03;;
75930;SDS011;64609;47.052;15.462;2023-02-15T10:27:15;60.63;;;33.42;;
75930;SDS011;64609;47.052;15.462;2023-02-15T10:32:56;58.35;;;33.78;;
75930;SDS011;64609;47.052;15.462;2023-02-15T10:41:04;59.10;;;33.97;;
75930;SDS011;64609;47.052;15.462;2023-02-15T10:49:26;54.22;;;32.25;;
75930;SDS011;64609;47.052;15.462;2023-02-15T10:52:38;58.65;;;32.47;;
75930;SDS011;64609;47.052;15.462;2023-02-15T11:06:05;61.05;;;35.33;;
75930;SDS011;64609;47.052;15.462;2023-02-15T11:08:37;56.78;;;34.22;;
75930;SDS011;64609;47.052;15.462;2023-02-15T11:11:22;55.25;;;32.45;;
75930;SDS011;64609;47.052;15.462;2023-02-15T11:14:12;57.42;;;33.83;;
75930;SDS011;64609;47.052;15.462;2023-02-15T11:16:40;56.60;;;33.78;;
75930;SDS011;64609;47.052;15.462;2023-02-15T11:19:30;61.17;;;33.88;;
75930;SDS011;64609;47.052;15.462;2023-02-15T11:22:00;57.40;;;33.85;;
75930;SDS011;64609;47.052;15.462;2023-02-15T11:24:29;57.00;;;34.95;;
75930;SDS011;64609;47.052;15.462;2023-02-15T11:30:05;57.85;;;32.85;;
75930;SDS011;64609;47.052;15.462;2023-02-15T11:38:16;54.17;;;32.67;;
75930;SDS011;64609;47.052;15.462;2023-02-15T11:40:55;53.30;;;32.88;;
75930;SDS011;64609;47.052;15.462;2023-02-15T11:46:23;59.90;;;32.08;;
75930;SDS011;64609;47.052;15.462;2023-02-15T11:48:48;53.55;;;32.88;;
75930;SDS011;64609;47.052;15.462;2023-02-15T11:51:15;57.40;;;33.22;;
75930;SDS011;64609;47.052;15.462;2023-02-15T11:53:46;52.72;;;32.65;;
75930;SDS011;64609;47.052;15.462;2023-02-15T11:56:16;55.58;;;34.05;;
75930;SDS011;64609;47.052;15.462;2023-02-15T11:58:52;57.50;;;33.17;;
75930;SDS011;64609;47.052;15.462;2023-02-15T12:01:28;60.08;;;33.47;;
75930;SDS011;64609;47.052;15.462;2023-02-15T12:04:06;53.75;;;32.10;;
75930;SDS011;64609;47.052;15.462;2023-02-15T12:06:43;54.53;;;32.40;;
75930;SDS011;64609;47.052;15.462;2023-02-15T12:09:18;51.00;;;31.58;;
75930;SDS011;64609;47.052;15.462;2023-02-15T12:11:54;54.85;;;31.33;;
75930;SDS011;64609;47.052;15.462;2023-02-15T12:14:58;49.97;;;31.80;;
75930;SDS011;64609;47.052;15.462;2023-02-15T12:17:30;57.90;;;32.78;;
75930;SDS011;64609;47.052;15.462;2023-02-15T12:20:03;55.60;;;33.40;;
75930;SDS011;64609;47.052;15.462;2023-02-15T12:22:37;60.67;;;33.15;;
75930;SDS011;64609;47.052;15.462;2023-02-15T12:25:11;58.35;;;33.72;;
75930;SDS011;64609;47.052;15.462;2023-02-15T12:28:00;60.70;;;34.47;;
75930;SDS011;64609;47.052;15.462;2023-02-15T12:30:34;60.17;;;32.92;;
75930;SDS011;64609;47.052;15.462;2023-02-15T12:33:43;57.53;;;34.50;;
75930;SDS011;64609;47.052;15.462;2023-02-15T12:36:11;53.75;;;34.00;;
75930;SDS011;64609;47.052;15.462;2023-02-15T12:39:30;56.65;;;33.38;;
75930;SDS011;64609;47.052;15.462;2023-02-15T12:41:36;59.70;;;34.17;;
75930;SDS011;64609;47.052;15.462;2023-02-15T12:47:29;57.17;;;33.13;;
75930;SDS011;64609;47.052;15.462;2023-02-15T12:49:33;56.70;;;34.20;;
75930;SDS011;64609;47.052;15.462;2023-02-15T12:52:01;62.35;;;34.25;;
75930;SDS011;64609;47.052;15.462;2023-02-15T12:56:59;56.60;;;33.17;;
75930;SDS011;64609;47.052;15.462;2023-02-15T13:00:01;63.00;;;34.67;;
75930;SDS011;64609;47.052;15.462;2023-02-15T13:05:10;60.47;;;33.85;;
75930;SDS011;64609;47.052;15.462;2023-02-15T13:10:51;55.10;;;32.92;;
75930;SDS011;64609;47.052;15.462;2023-02-15T13:13:31;55.30;;;33.10;;
75930;SDS011;64609;47.052;15.462;2023-02-15T13:16:02;60.08;;;34.47;;
75930;SDS011;64609;47.052;15.462;2023-02-15T13:18:39;57.05;;;33.17;;
75930;SDS011;64609;47.052;15.462;2023-02-15T13:21:14;54.92;;;32.60;;
75930;SDS011;64609;47.052;15.462;2023-02-15T13:23:47;59.47;;;32.88;;
75930;SDS011;64609;47.052;15.462;2023-02-15T13:26:18;54.25;;;32.60;;
75930;SDS011;64609;47.052;15.462;2023-02-15T13:28:47;55.75;;;34.72;;
75930;SDS011;64609;47.052;15.462;2023-02-15T13:31:23;61.72;;;34.83;;
75930;SDS011;64609;47.052;15.462;2023-02-15T13:34:14;60.60;;;34.13;;
75930;SDS011;64609;47.052;15.462;2023-02-15T13:39:38;61.72;;;35.92;;
75930;SDS011;64609;47.052;15.462;2023-02-15T13:42:14;56.15;;;35.38;;
75930;SDS011;64609;47.052;15.462;2023-02-15T14:09:24;60.20;;;32.47;;
75930;SDS011;64609;47.052;15.462;2023-02-15T14:23:36;59.03;;;32.60;;
75930;SDS011;64609;47.052;15.462;2023-02-15T14:34:57;68.68;;;32.45;;
75930;SDS011;64609;47.052;15.462;2023-02-15T14:37:39;64.80;;;32.72;;
75930;SDS011;64609;47.052;15.462;2023-02-15T14:40:12;64.90;;;32.85;;
75930;SDS011;64609;47.052;15.462;2023-02-15T14:49:15;60.40;;;32.50;;
75930;SDS011;64609;47.052;15.462;2023-02-15T14:56:41;64.70;;;32.05;;
75930;SDS011;64609;47.052;15.462;2023-02-15T14:59:42;67.20;;;33.63;;
75930;SDS011;64609;47.052;15.462;2023-02-15T15:09:28;62.22;;;31.65;;
75930;SDS011;64609;47.052;15.462;2023-02-15T15:14:46;66.63;;;33.67;;
75930;SDS011;64609;47.052;15.462;2023-02-15T15:17:13;60.28;;;32.30;;
75930;SDS011;64609;47.052;15.462;2023-02-15T15:19:58;60.63;;;32.83;;
75930;SDS011;64609;47.052;15.462;2023-02-15T15:22:26;71.68;;;35.20;;
75930;SDS011;64609;47.052;15.462;2023-02-15T15:24:54;67.85;;;35.22;;
75930;SDS011;64609;47.052;15.462;2023-02-15T15:27:44;61.97;;;32.80;;
75930;SDS011;64609;47.052;15.462;2023-02-15T15:35:36;61.50;;;33.17;;
75930;SDS011;64609;47.052;15.462;2023-02-15T15:49:08;63.47;;;32.70;;
75930;SDS011;64609;47.052;15.462;2023-02-15T15:51:40;62.92;;;32.90;;
75930;SDS011;64609;47.052;15.462;2023-02-15T15:54:20;63.55;;;34.40;;
75930;SDS011;64609;47.052;15.462;2023-02-15T15:59:20;65.85;;;33.10;;
75930;SDS011;64609;47.052;15.462;2023-02-15T16:01:51;60.95;;;31.88;;
75930;SDS011;64609;47.052;15.462;2023-02-15T16:06:57;59.08;;;32.38;;
75930;SDS011;64609;47.052;15.462;2023-02-15T16:09:38;62.50;;;32.05;;
75930;SDS011;64609;47.052;15.462;2023-02-15T16:12:03;61.50;;;32.13;;
75930;SDS011;64609;47.052;15.462;2023-02-15T16:14:39;61.22;;;31.95;;
75930;SDS011;64609;47.052;15.462;2023-02-15T16:17:07;69.78;;;32.78;;
75930;SDS011;64609;47.052;15.462;2023-02-15T16:19:40;59.90;;;32.30;;
75930;SDS011;64609;47.052;15.462;2023-02-15T16:22:11;63.35;;;33.22;;
75930;SDS011;64609;47.052;15.462;2023-02-15T16:30:16;58.17;;;31.80;;
75930;SDS011;64609;47.052;15.462;2023-02-15T16:32:42;60.03;;;31.13;;
75930;SDS011;64609;47.052;15.462;2023-02-15T16:35:17;59.90;;;32.00;;
75930;SDS011;64609;47.052;15.462;2023-02-15T16:37:44;63.45;;;33.80;;
75930;SDS011;64609;47.052;15.462;2023-02-15T16:42:49;66.25;;;32.65;;
75930;SDS011;64609;47.052;15.462;2023-02-15T16:45:23;67.57;;;32.65;;
75930;SDS011;64609;47.052;15.462;2023-02-15T16:47:52;66.32;;;33.30;;
75930;SDS011;64609;47.052;15.462;2023-02-15T16:50:34;67.78;;;32.75;;
75930;SDS011;64609;47.052;15.462;2023-02-15T16:53:02;60.92;;;32.10;;
75930;SDS011;64609;47.052;15.462;2023-02-15T16:55:34;62.05;;;31.73;;
75930;SDS011;64609;47.052;15.462;2023-02-15T16:58:04;59.92;;;32.17;;
75930;SDS011;64609;47.052;15.462;2023-02-15T17:00:36;57.33;;;31.67;;
75930;SDS011;64609;47.052;15.462;2023-02-15T17:05:56;60.03;;;32.92;;
75930;SDS011;64609;47.052;15.462;2023-02-15T17:13:37;61.95;;;33.35;;
75930;SDS011;64609;47.052;15.462;2023-02-15T17:18:38;64.97;;;32.53;;
75930;SDS011;64609;47.052;15.462;2023-02-15T17:21:10;67.85;;;33.03;;
75930;SDS011;64609;47.052;15.462;2023-02-15T17:23:42;64.85;;;33.78;;
75930;SDS011;64609;47.052;15.462;2023-02-15T17:26:11;64.38;;;33.97;;
75930;SDS011;64609;47.052;15.462;2023-02-15T17:28:59;67.15;;;33.30;;
75930;SDS011;64609;47.052;15.462;2023-02-15T17:31:34;76.03;;;36.13;;
75930;SDS011;64609;47.052;15.462;2023-02-15T17:34:00;71.03;;;33.85;;
75930;SDS011;64609;47.052;15.462;2023-02-15T17:36:27;68.65;;;34.35;;
75930;SDS011;64609;47.052;15.462;2023-02-15T17:43:49;67.68;;;34.17;;
75930;SDS011;64609;47.052;15.462;2023-02-15T17:46:15;68.07;;;33.95;;
75930;SDS011;64609;47.052;15.462;2023-02-15T17:48:47;71.88;;;34.95;;
75930;SDS011;64609;47.052;15.462;2023-02-15T17:51:14;66.18;;;35.55;;
75930;SDS011;64609;47.052;15.462;2023-02-15T17:53:41;68.10;;;35.40;;
75930;SDS011;64609;47.052;15.462;2023-02-15T17:56:30;69.03;;;36.25;;
75930;SDS011;64609;47.052;15.462;2023-02-15T17:59:00;75.88;;;35.83;;
75930;SDS011;64609;47.052;15.462;2023-02-15T18:04:15;70.53;;;35.10;;
75930;SDS011;64609;47.052;15.462;2023-02-15T18:06:59;68.22;;;36.47;;
75930;SDS011;64609;47.052;15.462;2023-02-15T18:09:44;75.65;;;37.53;;
75930;SDS011;64609;47.052;15.462;2023-02-15T18:12:29;76.40;;;38.15;;
75930;SDS011;64609;47.052;15.462;2023-02-15T18:14:56;74.47;;;36.28;;
75930;SDS011;64609;47.052;15.462;2023-02-15T18:17:33;72.10;;;37.20;;
75930;SDS011;64609;47.052;15.462;2023-02-15T18:20:01;73.75;;;38.30;;
75930;SDS011;64609;47.052;15.462;2023-02-15T18:22:30;77.37;;;37.37;;
75930;SDS011;64609;47.052;15.462;2023-02-15T18:24:56;78.63;;;38.60;;
75930;SDS011;64609;47.052;15.462;2023-02-15T18:27:22;73.85;;;37.05;;
75930;SDS011;64609;47.052;15.462;2023-02-15T18:29:48;79.43;;;39.90;;